sensor_id;sensor_type;location;lat;lon;timestamp;P1;durP1;ratioP1;P2;durP2;ratioP2
60502;SDS011;51448;51.660;5.824;2024-01-25T00:01:25;41.17;;;7.82;;
60502;SDS011;51448;51.660;5.824;2024-01-25T00:03:53;37.75;;;7.72;;
60502;SDS011;51448;51.660;5.824;2024-01-25T00:06:20;41.53;;;7.43;;
60502;SDS011;51448;51.660;5.824;2024-01-25T00:08:48;30.23;;;5.68;;
60502;SDS011;51448;51.660;5.824;2024-01-25T00:11:17;27.77;;;6.57;;
60502;SDS011;51448;51.660;5.824;2024-01-25T00:13:44;36.67;;;6.60;;
60502;SDS011;51448;51.660;5.824;2024-01-25T00:16:12;42.40;;;6.43;;
60502;SDS011;51448;51.660;5.824;2024-01-25T00:18:40;32.53;;;6.55;;
60502;SDS011;51448;51.660;5.824;2024-01-25T00:21:07;29.73;;;5.80;;
60502;SDS011;51448;51.660;5.824;2024-01-25T00:23:35;31.90;;;5.95;;
60502;SDS011;51448;51.660;5.824;2024-01-25T00:26:03;34.65;;;6.93;;
60502;SDS011;51448;51.660;5.824;2024-01-25T00:28:30;34.97;;;7.40;;
60502;SDS011;51448;51.660;5.824;2024-01-25T00:30:58;26.45;;;6.28;;
60502;SDS011;51448;51.660;5.824;2024-01-25T00:33:26;24.50;;;5.22;;
60502;SDS011;51448;51.660;5.824;2024-01-25T00:35:54;39.15;;;6.90;;
60502;SDS011;51448;51.660;5.824;2024-01-25T00:38:22;40.00;;;7.35;;
60502;SDS011;51448;51.660;5.824;2024-01-25T00:40:50;36.50;;;6.53;;
60502;SDS011;51448;51.660;5.824;2024-01-25T00:43:18;32.97;;;6.32;;
60502;SDS011;51448;51.660;5.824;2024-01-25T00:45:46;37.15;;;5.53;;
60502;SDS011;51448;51.660;5.824;2024-01-25T00:48:14;27.00;;;6.10;;
60502;SDS011;51448;51.660;5.824;2024-01-25T00:50:42;36.67;;;6.57;;
60502;SDS011;51448;51.660;5.824;2024-01-25T00:53:10;34.92;;;8.13;;
60502;SDS011;51448;51.660;5.824;2024-01-25T00:55:38;33.60;;;6.93;;
60502;SDS011;51448;51.660;5.824;2024-01-25T00:58:06;31.75;;;5.65;;
60502;SDS011;51448;51.660;5.824;2024-01-25T01:00:34;29.77;;;5.50;;
60502;SDS011;51448;51.660;5.824;2024-01-25T01:03:03;33.65;;;5.70;;
60502;SDS011;51448;51.660;5.824;2024-01-25T01:05:32;28.63;;;5.63;;
60502;SDS011;51448;51.660;5.824;2024-01-25T01:08:00;29.88;;;5.80;;
60502;SDS011;51448;51.660;5.824;2024-01-25T01:10:28;36.13;;;5.93;;
60502;SDS011;51448;51.660;5.824;2024-01-25T01:12:55;32.97;;;5.90;;
60502;SDS011;51448;51.660;5.824;2024-01-25T01:15:23;38.70;;;6.32;;
60502;SDS011;51448;51.660;5.824;2024-01-25T01:17:51;36.75;;;6.15;;
60502;SDS011;51448;51.660;5.824;2024-01-25T01:20:19;33.83;;;5.35;;
60502;SDS011;51448;51.660;5.824;2024-01-25T01:22:47;36.00;;;5.93;;
60502;SDS011;51448;51.660;5.824;2024-01-25T01:25:14;36.03;;;7.68;;
60502;SDS011;51448;51.660;5.824;2024-01-25T01:27:42;30.10;;;6.25;;
60502;SDS011;51448;51.660;5.824;2024-01-25T01:30:10;37.58;;;4.88;;
60502;SDS011;51448;51.660;5.824;2024-01-25T01:32:38;34.63;;;5.20;;
60502;SDS011;51448;51.660;5.824;2024-01-25T01:35:06;33.70;;;5.90;;
60502;SDS011;51448;51.660;5.824;2024-01-25T01:37:34;28.85;;;6.72;;
60502;SDS011;51448;51.660;5.824;2024-01-25T01:40:02;29.23;;;5.30;;
60502;SDS011;51448;51.660;5.824;2024-01-25T01:42:30;32.22;;;5.72;;
60502;SDS011;51448;51.660;5.824;2024-01-25T01:44:59;26.73;;;4.10;;
60502;SDS011;51448;51.660;5.824;2024-01-25T01:47:27;47.10;;;6.75;;
60502;SDS011;51448;51.660;5.824;2024-01-25T01:49:55;34.53;;;6.05;;
60502;SDS011;51448;51.660;5.824;2024-01-25T01:52:23;36.25;;;6.43;;
60502;SDS011;51448;51.660;5.824;2024-01-25T01:54:51;29.27;;;6.50;;
60502;SDS011;51448;51.660;5.824;2024-01-25T01:57:19;31.83;;;5.28;;
60502;SDS011;51448;51.660;5.824;2024-01-25T01:59:46;28.85;;;5.53;;
60502;SDS011;51448;51.660;5.824;2024-01-25T02:02:16;36.95;;;8.70;;
60502;SDS011;51448;51.660;5.824;2024-01-25T02:04:44;35.45;;;6.38;;
60502;SDS011;51448;51.660;5.824;2024-01-25T02:07:11;30.23;;;5.68;;
60502;SDS011;51448;51.660;5.824;2024-01-25T02:09:39;34.00;;;6.22;;
60502;SDS011;51448;51.660;5.824;2024-01-25T02:12:07;22.15;;;4.18;;
60502;SDS011;51448;51.660;5.824;2024-01-25T02:14:35;26.42;;;5.78;;
60502;SDS011;51448;51.660;5.824;2024-01-25T02:17:03;27.77;;;5.57;;
60502;SDS011;51448;51.660;5.824;2024-01-25T02:19:31;30.13;;;5.93;;
60502;SDS011;51448;51.660;5.824;2024-01-25T02:21:58;28.40;;;5.03;;
60502;SDS011;51448;51.660;5.824;2024-01-25T02:24:26;32.28;;;6.10;;
60502;SDS011;51448;51.660;5.824;2024-01-25T02:26:54;31.00;;;6.22;;
60502;SDS011;51448;51.660;5.824;2024-01-25T02:29:21;28.08;;;5.15;;
60502;SDS011;51448;51.660;5.824;2024-01-25T02:31:49;27.80;;;5.75;;
60502;SDS011;51448;51.660;5.824;2024-01-25T02:34:17;37.58;;;5.97;;
60502;SDS011;51448;51.660;5.824;2024-01-25T02:36:45;30.10;;;4.53;;
60502;SDS011;51448;51.660;5.824;2024-01-25T02:39:12;42.72;;;6.25;;
60502;SDS011;51448;51.660;5.824;2024-01-25T02:41:40;29.90;;;5.78;;
60502;SDS011;51448;51.660;5.824;2024-01-25T02:44:07;39.97;;;6.38;;
60502;SDS011;51448;51.660;5.824;2024-01-25T02:46:35;33.92;;;5.22;;
60502;SDS011;51448;51.660;5.824;2024-01-25T02:49:03;34.85;;;6.18;;
60502;SDS011;51448;51.660;5.824;2024-01-25T02:51:31;33.75;;;5.85;;
60502;SDS011;51448;51.660;5.824;2024-01-25T02:53:59;35.28;;;8.27;;
60502;SDS011;51448;51.660;5.824;2024-01-25T02:56:26;30.65;;;5.85;;
60502;SDS011;51448;51.660;5.824;2024-01-25T02:59:03;28.23;;;5.28;;
60502;SDS011;51448;51.660;5.824;2024-01-25T03:01:40;29.83;;;6.90;;
60502;SDS011;51448;51.660;5.824;2024-01-25T03:04:09;32.45;;;6.20;;
60502;SDS011;51448;51.660;5.824;2024-01-25T03:06:37;26.50;;;4.60;;
60502;SDS011;51448;51.660;5.824;2024-01-25T03:09:05;35.22;;;5.57;;
60502;SDS011;51448;51.660;5.824;2024-01-25T03:11:32;35.85;;;5.97;;
60502;SDS011;51448;51.660;5.824;2024-01-25T03:14:00;36.65;;;6.63;;
60502;SDS011;51448;51.660;5.824;2024-01-25T03:16:28;35.22;;;6.50;;
60502;SDS011;51448;51.660;5.824;2024-01-25T03:18:55;25.98;;;6.47;;
60502;SDS011;51448;51.660;5.824;2024-01-25T03:21:23;31.58;;;6.10;;
60502;SDS011;51448;51.660;5.824;2024-01-25T03:23:51;38.53;;;6.88;;
60502;SDS011;51448;51.660;5.824;2024-01-25T03:26:18;37.22;;;6.00;;
60502;SDS011;51448;51.660;5.824;2024-01-25T03:28:46;36.75;;;6.82;;
60502;SDS011;51448;51.660;5.824;2024-01-25T03:31:13;36.53;;;6.07;;
60502;SDS011;51448;51.660;5.824;2024-01-25T03:33:41;34.83;;;5.90;;
60502;SDS011;51448;51.660;5.824;2024-01-25T03:36:09;41.63;;;7.65;;
60502;SDS011;51448;51.660;5.824;2024-01-25T03:38:40;33.05;;;5.32;;
60502;SDS011;51448;51.660;5.824;2024-01-25T03:41:08;35.53;;;6.72;;
60502;SDS011;51448;51.660;5.824;2024-01-25T03:43:36;36.25;;;7.35;;
60502;SDS011;51448;51.660;5.824;2024-01-25T03:46:11;22.70;;;6.43;;
60502;SDS011;51448;51.660;5.824;2024-01-25T03:48:39;36.55;;;6.80;;
60502;SDS011;51448;51.660;5.824;2024-01-25T03:51:07;29.38;;;6.03;;
60502;SDS011;51448;51.660;5.824;2024-01-25T03:53:36;41.55;;;5.90;;
60502;SDS011;51448;51.660;5.824;2024-01-25T03:56:03;31.50;;;6.20;;
60502;SDS011;51448;51.660;5.824;2024-01-25T03:58:37;36.20;;;6.68;;
60502;SDS011;51448;51.660;5.824;2024-01-25T04:01:05;38.47;;;7.18;;
60502;SDS011;51448;51.660;5.824;2024-01-25T04:03:33;36.50;;;6.72;;
60502;SDS011;51448;51.660;5.824;2024-01-25T04:06:01;28.88;;;5.50;;
60502;SDS011;51448;51.660;5.824;2024-01-25T04:08:29;35.08;;;5.90;;
60502;SDS011;51448;51.660;5.824;2024-01-25T04:10:56;34.13;;;5.20;;
60502;SDS011;51448;51.660;5.824;2024-01-25T04:13:24;34.53;;;6.85;;
60502;SDS011;51448;51.660;5.824;2024-01-25T04:15:51;33.53;;;6.00;;
60502;SDS011;51448;51.660;5.824;2024-01-25T04:18:19;30.42;;;6.15;;
60502;SDS011;51448;51.660;5.824;2024-01-25T04:20:47;35.67;;;6.65;;
60502;SDS011;51448;51.660;5.824;2024-01-25T04:23:15;44.20;;;7.30;;
60502;SDS011;51448;51.660;5.824;2024-01-25T04:25:42;47.83;;;8.82;;
60502;SDS011;51448;51.660;5.824;2024-01-25T04:28:10;39.63;;;7.28;;
60502;SDS011;51448;51.660;5.824;2024-01-25T04:30:38;34.95;;;6.85;;
60502;SDS011;51448;51.660;5.824;2024-01-25T04:33:06;47.20;;;8.27;;
60502;SDS011;51448;51.660;5.824;2024-01-25T04:35:33;37.83;;;6.93;;
60502;SDS011;51448;51.660;5.824;2024-01-25T04:38:01;41.22;;;6.82;;
60502;SDS011;51448;51.660;5.824;2024-01-25T04:40:29;34.30;;;6.25;;
60502;SDS011;51448;51.660;5.824;2024-01-25T04:42:57;39.42;;;5.75;;
60502;SDS011;51448;51.660;5.824;2024-01-25T04:45:26;35.38;;;7.45;;
60502;SDS011;51448;51.660;5.824;2024-01-25T04:47:53;39.33;;;6.30;;
60502;SDS011;51448;51.660;5.824;2024-01-25T04:50:21;34.10;;;5.75;;
60502;SDS011;51448;51.660;5.824;2024-01-25T04:52:48;29.35;;;5.93;;
60502;SDS011;51448;51.660;5.824;2024-01-25T04:55:16;38.78;;;7.10;;
60502;SDS011;51448;51.660;5.824;2024-01-25T04:57:44;36.25;;;5.57;;
60502;SDS011;51448;51.660;5.824;2024-01-25T05:00:11;44.65;;;7.07;;
60502;SDS011;51448;51.660;5.824;2024-01-25T05:02:40;39.10;;;7.03;;
60502;SDS011;51448;51.660;5.824;2024-01-25T05:05:07;44.92;;;7.20;;
60502;SDS011;51448;51.660;5.824;2024-01-25T05:07:35;35.95;;;6.28;;
60502;SDS011;51448;51.660;5.824;2024-01-25T05:10:03;38.55;;;6.00;;
60502;SDS011;51448;51.660;5.824;2024-01-25T05:12:31;42.05;;;7.20;;
60502;SDS011;51448;51.660;5.824;2024-01-25T05:14:59;36.92;;;7.95;;
60502;SDS011;51448;51.660;5.824;2024-01-25T05:17:26;40.40;;;6.78;;
60502;SDS011;51448;51.660;5.824;2024-01-25T05:19:54;31.73;;;6.00;;
60502;SDS011;51448;51.660;5.824;2024-01-25T05:22:22;42.80;;;7.93;;
60502;SDS011;51448;51.660;5.824;2024-01-25T05:24:50;29.30;;;6.15;;
60502;SDS011;51448;51.660;5.824;2024-01-25T05:27:18;35.83;;;6.30;;
60502;SDS011;51448;51.660;5.824;2024-01-25T05:29:45;38.97;;;6.47;;
60502;SDS011;51448;51.660;5.824;2024-01-25T05:32:13;49.60;;;7.03;;
60502;SDS011;51448;51.660;5.824;2024-01-25T05:34:40;42.45;;;7.18;;
60502;SDS011;51448;51.660;5.824;2024-01-25T05:37:08;44.92;;;7.20;;
60502;SDS011;51448;51.660;5.824;2024-01-25T05:39:36;39.22;;;6.65;;
60502;SDS011;51448;51.660;5.824;2024-01-25T05:42:03;33.75;;;5.47;;
60502;SDS011;51448;51.660;5.824;2024-01-25T05:44:31;36.03;;;6.28;;
60502;SDS011;51448;51.660;5.824;2024-01-25T05:46:59;37.35;;;7.43;;
60502;SDS011;51448;51.660;5.824;2024-01-25T05:49:27;39.88;;;6.53;;
60502;SDS011;51448;51.660;5.824;2024-01-25T05:51:55;33.35;;;5.38;;
60502;SDS011;51448;51.660;5.824;2024-01-25T05:54:22;29.92;;;5.57;;
60502;SDS011;51448;51.660;5.824;2024-01-25T05:56:50;38.58;;;6.55;;
60502;SDS011;51448;51.660;5.824;2024-01-25T05:59:17;29.23;;;5.07;;
60502;SDS011;51448;51.660;5.824;2024-01-25T06:01:45;28.08;;;5.70;;
60502;SDS011;51448;51.660;5.824;2024-01-25T06:04:13;32.95;;;5.68;;
60502;SDS011;51448;51.660;5.824;2024-01-25T06:06:40;48.88;;;8.82;;
60502;SDS011;51448;51.660;5.824;2024-01-25T06:09:08;35.78;;;6.55;;
60502;SDS011;51448;51.660;5.824;2024-01-25T06:11:40;33.22;;;6.50;;
60502;SDS011;51448;51.660;5.824;2024-01-25T06:14:08;39.53;;;6.22;;
60502;SDS011;51448;51.660;5.824;2024-01-25T06:16:36;33.30;;;7.72;;
60502;SDS011;51448;51.660;5.824;2024-01-25T06:19:04;33.05;;;5.93;;
60502;SDS011;51448;51.660;5.824;2024-01-25T06:21:35;30.83;;;7.85;;
60502;SDS011;51448;51.660;5.824;2024-01-25T06:24:54;39.22;;;6.57;;
60502;SDS011;51448;51.660;5.824;2024-01-25T06:27:22;32.90;;;6.47;;
60502;SDS011;51448;51.660;5.824;2024-01-25T06:29:49;30.65;;;5.53;;
60502;SDS011;51448;51.660;5.824;2024-01-25T06:32:17;36.20;;;7.60;;
60502;SDS011;51448;51.660;5.824;2024-01-25T06:34:52;37.83;;;5.82;;
60502;SDS011;51448;51.660;5.824;2024-01-25T06:37:21;39.60;;;6.28;;
60502;SDS011;51448;51.660;5.824;2024-01-25T06:39:49;33.03;;;6.07;;
60502;SDS011;51448;51.660;5.824;2024-01-25T06:42:17;33.88;;;6.95;;
60502;SDS011;51448;51.660;5.824;2024-01-25T06:44:44;39.33;;;7.32;;
60502;SDS011;51448;51.660;5.824;2024-01-25T06:47:12;32.80;;;5.28;;
60502;SDS011;51448;51.660;5.824;2024-01-25T06:49:40;32.35;;;5.85;;
60502;SDS011;51448;51.660;5.824;2024-01-25T06:52:07;39.40;;;7.68;;
60502;SDS011;51448;51.660;5.824;2024-01-25T06:54:35;41.67;;;6.32;;
60502;SDS011;51448;51.660;5.824;2024-01-25T06:57:03;52.53;;;8.18;;
60502;SDS011;51448;51.660;5.824;2024-01-25T06:59:31;39.53;;;6.60;;
60502;SDS011;51448;51.660;5.824;2024-01-25T07:01:59;28.33;;;6.38;;
60502;SDS011;51448;51.660;5.824;2024-01-25T07:04:28;43.05;;;8.30;;
60502;SDS011;51448;51.660;5.824;2024-01-25T07:06:57;44.05;;;7.75;;
60502;SDS011;51448;51.660;5.824;2024-01-25T07:09:26;28.38;;;6.80;;
60502;SDS011;51448;51.660;5.824;2024-01-25T07:11:53;37.20;;;6.65;;
60502;SDS011;51448;51.660;5.824;2024-01-25T07:14:21;30.98;;;6.75;;
60502;SDS011;51448;51.660;5.824;2024-01-25T07:16:48;36.72;;;7.20;;
60502;SDS011;51448;51.660;5.824;2024-01-25T07:19:16;40.80;;;7.63;;
60502;SDS011;51448;51.660;5.824;2024-01-25T07:21:45;35.70;;;6.20;;
60502;SDS011;51448;51.660;5.824;2024-01-25T07:24:13;34.65;;;7.38;;
60502;SDS011;51448;51.660;5.824;2024-01-25T07:26:40;43.28;;;8.75;;
60502;SDS011;51448;51.660;5.824;2024-01-25T07:29:08;43.22;;;8.32;;
60502;SDS011;51448;51.660;5.824;2024-01-25T07:31:35;41.20;;;7.25;;
60502;SDS011;51448;51.660;5.824;2024-01-25T07:34:03;35.42;;;8.32;;
60502;SDS011;51448;51.660;5.824;2024-01-25T07:36:31;39.17;;;8.38;;
60502;SDS011;51448;51.660;5.824;2024-01-25T07:38:59;36.13;;;7.47;;
60502;SDS011;51448;51.660;5.824;2024-01-25T07:41:26;36.17;;;7.35;;
60502;SDS011;51448;51.660;5.824;2024-01-25T07:43:54;39.38;;;7.93;;
60502;SDS011;51448;51.660;5.824;2024-01-25T07:46:22;37.03;;;7.45;;
60502;SDS011;51448;51.660;5.824;2024-01-25T07:48:51;40.92;;;7.00;;
60502;SDS011;51448;51.660;5.824;2024-01-25T07:51:19;43.95;;;8.85;;
60502;SDS011;51448;51.660;5.824;2024-01-25T07:53:47;44.28;;;7.55;;
60502;SDS011;51448;51.660;5.824;2024-01-25T07:56:14;36.92;;;8.25;;
60502;SDS011;51448;51.660;5.824;2024-01-25T07:58:42;41.03;;;8.75;;
60502;SDS011;51448;51.660;5.824;2024-01-25T08:01:09;43.35;;;8.70;;
60502;SDS011;51448;51.660;5.824;2024-01-25T08:03:37;40.20;;;7.43;;
60502;SDS011;51448;51.660;5.824;2024-01-25T08:06:05;41.00;;;9.88;;
60502;SDS011;51448;51.660;5.824;2024-01-25T08:08:33;44.55;;;8.80;;
60502;SDS011;51448;51.660;5.824;2024-01-25T08:11:00;36.60;;;7.30;;
60502;SDS011;51448;51.660;5.824;2024-01-25T08:13:28;35.10;;;7.93;;
60502;SDS011;51448;51.660;5.824;2024-01-25T08:18:28;44.47;;;9.40;;
60502;SDS011;51448;51.660;5.824;2024-01-25T08:20:57;49.50;;;11.13;;
60502;SDS011;51448;51.660;5.824;2024-01-25T08:23:28;34.78;;;7.80;;
60502;SDS011;51448;51.660;5.824;2024-01-25T08:25:55;38.67;;;7.47;;
60502;SDS011;51448;51.660;5.824;2024-01-25T08:28:23;46.60;;;10.35;;
60502;SDS011;51448;51.660;5.824;2024-01-25T08:30:51;43.22;;;8.95;;
60502;SDS011;51448;51.660;5.824;2024-01-25T08:33:18;45.60;;;8.20;;
60502;SDS011;51448;51.660;5.824;2024-01-25T08:35:46;39.30;;;8.18;;
60502;SDS011;51448;51.660;5.824;2024-01-25T08:38:13;36.08;;;8.30;;
60502;SDS011;51448;51.660;5.824;2024-01-25T08:40:41;44.88;;;9.18;;
60502;SDS011;51448;51.660;5.824;2024-01-25T08:43:09;41.13;;;10.82;;
60502;SDS011;51448;51.660;5.824;2024-01-25T08:45:36;43.78;;;9.90;;
60502;SDS011;51448;51.660;5.824;2024-01-25T08:48:05;49.95;;;9.38;;
60502;SDS011;51448;51.660;5.824;2024-01-25T08:50:36;40.47;;;9.68;;
60502;SDS011;51448;51.660;5.824;2024-01-25T08:53:03;33.10;;;9.75;;
60502;SDS011;51448;51.660;5.824;2024-01-25T08:55:32;37.42;;;10.18;;
60502;SDS011;51448;51.660;5.824;2024-01-25T08:58:00;35.83;;;9.60;;
60502;SDS011;51448;51.660;5.824;2024-01-25T09:00:27;52.65;;;9.80;;
60502;SDS011;51448;51.660;5.824;2024-01-25T09:02:55;38.13;;;8.75;;
60502;SDS011;51448;51.660;5.824;2024-01-25T09:05:22;33.00;;;8.60;;
60502;SDS011;51448;51.660;5.824;2024-01-25T09:07:50;36.55;;;11.23;;
60502;SDS011;51448;51.660;5.824;2024-01-25T09:10:19;41.40;;;9.18;;
60502;SDS011;51448;51.660;5.824;2024-01-25T09:12:46;40.70;;;9.98;;
60502;SDS011;51448;51.660;5.824;2024-01-25T09:15:14;43.88;;;11.40;;
60502;SDS011;51448;51.660;5.824;2024-01-25T09:17:42;42.85;;;9.18;;
60502;SDS011;51448;51.660;5.824;2024-01-25T09:20:11;41.72;;;10.50;;
60502;SDS011;51448;51.660;5.824;2024-01-25T09:22:39;42.15;;;9.48;;
60502;SDS011;51448;51.660;5.824;2024-01-25T09:25:07;39.78;;;9.80;;
60502;SDS011;51448;51.660;5.824;2024-01-25T09:27:36;37.38;;;10.27;;
60502;SDS011;51448;51.660;5.824;2024-01-25T09:30:05;37.17;;;9.82;;
60502;SDS011;51448;51.660;5.824;2024-01-25T09:32:34;44.38;;;12.05;;
60502;SDS011;51448;51.660;5.824;2024-01-25T09:35:02;35.92;;;10.70;;
60502;SDS011;51448;51.660;5.824;2024-01-25T09:37:30;45.15;;;10.15;;
60502;SDS011;51448;51.660;5.824;2024-01-25T09:39:58;41.67;;;10.88;;
60502;SDS011;51448;51.660;5.824;2024-01-25T09:42:26;51.30;;;11.45;;
60502;SDS011;51448;51.660;5.824;2024-01-25T09:44:54;40.30;;;9.70;;
60502;SDS011;51448;51.660;5.824;2024-01-25T09:47:22;43.35;;;11.05;;
60502;SDS011;51448;51.660;5.824;2024-01-25T09:49:50;35.60;;;9.48;;
60502;SDS011;51448;51.660;5.824;2024-01-25T09:52:18;35.40;;;9.13;;
60502;SDS011;51448;51.660;5.824;2024-01-25T09:54:53;54.20;;;11.90;;
60502;SDS011;51448;51.660;5.824;2024-01-25T09:57:22;37.33;;;9.30;;
60502;SDS011;51448;51.660;5.824;2024-01-25T10:02:22;45.90;;;9.95;;
60502;SDS011;51448;51.660;5.824;2024-01-25T10:04:51;39.88;;;10.82;;
60502;SDS011;51448;51.660;5.824;2024-01-25T10:07:40;41.13;;;10.88;;
60502;SDS011;51448;51.660;5.824;2024-01-25T10:10:11;35.15;;;10.95;;
60502;SDS011;51448;51.660;5.824;2024-01-25T10:12:41;46.25;;;12.63;;
60502;SDS011;51448;51.660;5.824;2024-01-25T10:15:11;44.80;;;11.52;;
60502;SDS011;51448;51.660;5.824;2024-01-25T10:17:38;43.47;;;11.48;;
60502;SDS011;51448;51.660;5.824;2024-01-25T10:20:26;43.65;;;10.85;;
60502;SDS011;51448;51.660;5.824;2024-01-25T10:22:58;33.85;;;10.50;;
60502;SDS011;51448;51.660;5.824;2024-01-25T10:25:27;37.58;;;9.30;;
60502;SDS011;51448;51.660;5.824;2024-01-25T10:27:55;37.75;;;10.43;;
60502;SDS011;51448;51.660;5.824;2024-01-25T10:30:23;42.67;;;12.20;;
60502;SDS011;51448;51.660;5.824;2024-01-25T10:32:51;34.13;;;10.32;;
60502;SDS011;51448;51.660;5.824;2024-01-25T10:35:22;48.80;;;11.82;;
60502;SDS011;51448;51.660;5.824;2024-01-25T10:37:52;35.20;;;9.60;;
60502;SDS011;51448;51.660;5.824;2024-01-25T10:40:21;43.35;;;10.65;;
60502;SDS011;51448;51.660;5.824;2024-01-25T10:42:50;48.72;;;12.20;;
60502;SDS011;51448;51.660;5.824;2024-01-25T10:45:19;41.65;;;12.43;;
60502;SDS011;51448;51.660;5.824;2024-01-25T10:47:49;37.67;;;10.65;;
60502;SDS011;51448;51.660;5.824;2024-01-25T10:50:17;40.80;;;12.10;;
60502;SDS011;51448;51.660;5.824;2024-01-25T10:52:46;38.47;;;12.18;;
60502;SDS011;51448;51.660;5.824;2024-01-25T10:55:15;39.17;;;10.82;;
60502;SDS011;51448;51.660;5.824;2024-01-25T10:57:44;38.03;;;11.15;;
60502;SDS011;51448;51.660;5.824;2024-01-25T11:00:13;43.38;;;12.90;;
60502;SDS011;51448;51.660;5.824;2024-01-25T11:02:44;40.65;;;11.30;;
60502;SDS011;51448;51.660;5.824;2024-01-25T11:05:17;36.75;;;13.45;;
60502;SDS011;51448;51.660;5.824;2024-01-25T11:07:49;36.58;;;13.45;;
60502;SDS011;51448;51.660;5.824;2024-01-25T11:10:19;42.20;;;12.27;;
60502;SDS011;51448;51.660;5.824;2024-01-25T11:12:54;34.70;;;11.48;;
60502;SDS011;51448;51.660;5.824;2024-01-25T11:15:30;44.40;;;14.13;;
60502;SDS011;51448;51.660;5.824;2024-01-25T11:18:01;35.92;;;12.35;;
60502;SDS011;51448;51.660;5.824;2024-01-25T11:20:31;49.00;;;13.10;;
60502;SDS011;51448;51.660;5.824;2024-01-25T11:23:01;40.90;;;13.23;;
60502;SDS011;51448;51.660;5.824;2024-01-25T11:25:32;42.50;;;14.38;;
60502;SDS011;51448;51.660;5.824;2024-01-25T11:28:04;37.20;;;12.43;;
60502;SDS011;51448;51.660;5.824;2024-01-25T11:30:33;30.30;;;12.95;;
60502;SDS011;51448;51.660;5.824;2024-01-25T11:33:05;48.65;;;15.07;;
60502;SDS011;51448;51.660;5.824;2024-01-25T11:35:35;38.67;;;12.65;;
60502;SDS011;51448;51.660;5.824;2024-01-25T11:38:03;36.90;;;12.93;;
60502;SDS011;51448;51.660;5.824;2024-01-25T11:40:31;41.45;;;14.20;;
60502;SDS011;51448;51.660;5.824;2024-01-25T11:43:04;40.00;;;12.90;;
60502;SDS011;51448;51.660;5.824;2024-01-25T11:45:38;41.38;;;14.48;;
60502;SDS011;51448;51.660;5.824;2024-01-25T11:48:11;45.55;;;13.80;;
60502;SDS011;51448;51.660;5.824;2024-01-25T11:50:39;38.67;;;13.73;;
60502;SDS011;51448;51.660;5.824;2024-01-25T11:53:07;39.05;;;14.43;;
60502;SDS011;51448;51.660;5.824;2024-01-25T11:55:35;43.78;;;15.13;;
60502;SDS011;51448;51.660;5.824;2024-01-25T11:58:03;38.92;;;14.02;;
60502;SDS011;51448;51.660;5.824;2024-01-25T12:00:31;46.10;;;16.40;;
60502;SDS011;51448;51.660;5.824;2024-01-25T12:02:59;39.72;;;17.05;;
60502;SDS011;51448;51.660;5.824;2024-01-25T12:05:26;46.30;;;16.98;;
60502;SDS011;51448;51.660;5.824;2024-01-25T12:07:54;42.78;;;17.02;;
60502;SDS011;51448;51.660;5.824;2024-01-25T12:10:22;45.90;;;18.10;;
60502;SDS011;51448;51.660;5.824;2024-01-25T12:12:53;51.42;;;17.83;;
60502;SDS011;51448;51.660;5.824;2024-01-25T12:15:22;35.85;;;18.15;;
60502;SDS011;51448;51.660;5.824;2024-01-25T12:17:50;48.55;;;20.25;;
60502;SDS011;51448;51.660;5.824;2024-01-25T12:20:18;44.78;;;18.45;;
60502;SDS011;51448;51.660;5.824;2024-01-25T12:22:48;47.22;;;20.35;;
60502;SDS011;51448;51.660;5.824;2024-01-25T12:25:15;44.55;;;18.40;;
60502;SDS011;51448;51.660;5.824;2024-01-25T12:27:43;52.72;;;20.02;;
60502;SDS011;51448;51.660;5.824;2024-01-25T12:30:14;49.20;;;18.73;;
60502;SDS011;51448;51.660;5.824;2024-01-25T12:32:41;54.50;;;18.40;;
60502;SDS011;51448;51.660;5.824;2024-01-25T12:35:09;51.42;;;19.70;;
60502;SDS011;51448;51.660;5.824;2024-01-25T12:37:37;49.90;;;20.73;;
60502;SDS011;51448;51.660;5.824;2024-01-25T12:40:05;56.38;;;21.92;;
60502;SDS011;51448;51.660;5.824;2024-01-25T12:42:34;60.55;;;24.73;;
60502;SDS011;51448;51.660;5.824;2024-01-25T12:45:02;55.08;;;24.50;;
60502;SDS011;51448;51.660;5.824;2024-01-25T12:47:30;71.53;;;26.83;;
60502;SDS011;51448;51.660;5.824;2024-01-25T12:49:58;70.55;;;25.95;;
60502;SDS011;51448;51.660;5.824;2024-01-25T12:52:26;64.28;;;26.98;;
60502;SDS011;51448;51.660;5.824;2024-01-25T12:54:54;59.90;;;26.60;;
60502;SDS011;51448;51.660;5.824;2024-01-25T12:57:23;73.32;;;27.67;;
60502;SDS011;51448;51.660;5.824;2024-01-25T12:59:51;72.20;;;27.35;;
60502;SDS011;51448;51.660;5.824;2024-01-25T13:02:19;69.97;;;29.67;;
60502;SDS011;51448;51.660;5.824;2024-01-25T13:04:46;64.00;;;28.35;;
60502;SDS011;51448;51.660;5.824;2024-01-25T13:07:14;70.53;;;27.30;;
60502;SDS011;51448;51.660;5.824;2024-01-25T13:09:42;69.10;;;27.70;;
60502;SDS011;51448;51.660;5.824;2024-01-25T13:12:09;62.70;;;26.10;;
60502;SDS011;51448;51.660;5.824;2024-01-25T13:14:37;60.08;;;24.67;;
60502;SDS011;51448;51.660;5.824;2024-01-25T13:17:04;55.85;;;23.40;;
60502;SDS011;51448;51.660;5.824;2024-01-25T13:19:35;60.05;;;24.60;;
60502;SDS011;51448;51.660;5.824;2024-01-25T13:22:02;55.92;;;22.95;;
60502;SDS011;51448;51.660;5.824;2024-01-25T13:24:30;51.67;;;22.45;;
60502;SDS011;51448;51.660;5.824;2024-01-25T13:26:58;47.20;;;21.58;;
60502;SDS011;51448;51.660;5.824;2024-01-25T13:29:25;54.03;;;21.02;;
60502;SDS011;51448;51.660;5.824;2024-01-25T13:31:53;41.15;;;17.25;;
60502;SDS011;51448;51.660;5.824;2024-01-25T13:34:20;38.55;;;16.92;;
60502;SDS011;51448;51.660;5.824;2024-01-25T13:36:48;45.65;;;17.08;;
60502;SDS011;51448;51.660;5.824;2024-01-25T13:39:16;46.75;;;16.70;;
60502;SDS011;51448;51.660;5.824;2024-01-25T13:41:44;38.53;;;16.73;;
60502;SDS011;51448;51.660;5.824;2024-01-25T13:44:14;45.15;;;16.67;;
60502;SDS011;51448;51.660;5.824;2024-01-25T13:46:41;41.30;;;16.65;;
60502;SDS011;51448;51.660;5.824;2024-01-25T13:49:09;44.38;;;15.52;;
60502;SDS011;51448;51.660;5.824;2024-01-25T13:51:37;47.53;;;16.10;;
60502;SDS011;51448;51.660;5.824;2024-01-25T13:54:04;43.05;;;16.05;;
60502;SDS011;51448;51.660;5.824;2024-01-25T13:56:32;44.78;;;16.40;;
60502;SDS011;51448;51.660;5.824;2024-01-25T13:58:59;49.72;;;15.70;;
60502;SDS011;51448;51.660;5.824;2024-01-25T14:01:27;42.33;;;15.13;;
60502;SDS011;51448;51.660;5.824;2024-01-25T14:03:54;45.75;;;16.15;;
60502;SDS011;51448;51.660;5.824;2024-01-25T14:06:22;42.75;;;15.57;;
60502;SDS011;51448;51.660;5.824;2024-01-25T14:08:50;39.58;;;14.60;;
60502;SDS011;51448;51.660;5.824;2024-01-25T14:11:18;37.97;;;14.75;;
60502;SDS011;51448;51.660;5.824;2024-01-25T14:13:46;44.83;;;15.43;;
60502;SDS011;51448;51.660;5.824;2024-01-25T14:16:13;45.85;;;17.23;;
60502;SDS011;51448;51.660;5.824;2024-01-25T14:18:45;43.00;;;15.75;;
60502;SDS011;51448;51.660;5.824;2024-01-25T14:21:13;38.80;;;13.80;;
60502;SDS011;51448;51.660;5.824;2024-01-25T14:23:43;35.83;;;14.27;;
60502;SDS011;51448;51.660;5.824;2024-01-25T14:26:10;38.17;;;14.57;;
60502;SDS011;51448;51.660;5.824;2024-01-25T14:28:38;43.65;;;14.77;;
60502;SDS011;51448;51.660;5.824;2024-01-25T14:31:06;45.65;;;16.35;;
60502;SDS011;51448;51.660;5.824;2024-01-25T14:33:34;35.08;;;14.98;;
60502;SDS011;51448;51.660;5.824;2024-01-25T14:36:02;34.83;;;14.65;;
60502;SDS011;51448;51.660;5.824;2024-01-25T14:38:31;35.08;;;16.00;;
60502;SDS011;51448;51.660;5.824;2024-01-25T14:40:59;41.08;;;16.48;;
60502;SDS011;51448;51.660;5.824;2024-01-25T14:43:29;38.85;;;14.32;;